Hopkinsville, Kentucky
Current Conditions -  °F | °C
As of 10:58 AM on Thursday 23 Oct 2014 (Local Time) from KHOP Reporting Station
Clear Clear  
Wind Chill: 56°   Ceiling: Unl
Heat Index: 56°   Visibility: 10mi
Dew Point: 44°   Wind: 5mph
Humidity: 64%   Direction: NA
Pressure: 30.24"   Gusts: NA
Location:  36.87°N, 87.49°W
Report Text: KHOP 231558Z AUTO VRB04KT 10SM CLR 13/06 A3024 RMK AO2 SLP242 T01310064
Loading
Personal Weather Stations






























Interactive Weather Map
Tropical Storm Tracking
New forecast layout! Learn more

10-Day Weather Forecast

Advertisements
Track Severe Weather on mobile